默认 日期 大小 文件数 浏览量 最新下载 xml
dom dom磁力链接相关资源由用户搜索指令自动获取,结果来源于网络,本站不存储任何资料,亦不承担任何责任,请于24小时内删除,搜索到14739个磁力,显示前4000条数据,用时5ms。
    ... Flugan.mp3": 6094229, "08 - Dom Viktiga Skorna - Mickcheck.mp3": ... .mp3": 6163819, "10 - Dom Viktiga Skorna - Karlek och politik ... .mp3": 10737964, "07 - Dom Viktiga Skorna - Det har maste ... Konverserande.mp3": 5047241, "15 - Dom Viktiga Skorna - En sang for ...
创建时间: 2018-12-05 16:25:55 大小:134.12 MB 文件数量:21 热度:9 最近下载:2025-10-18 02:38:02
    {"back.jpeg": 124762, "front.jpeg": 164609, "04 - Time.mp3": 16857216, "08 - City.mp3": 15607936, "01 - Thunder.mp3": 14485632, "06 - Elektra.mp3": 18108544, "12 - Kinetic.mp3": 13992064, "11 - Industry.mp3": 11907200, "03 - Connected.mp3": 17993856, "07 - ...
创建时间: 2018-12-05 18:16:40 大小:177.34 MB 文件数量:14 热度:7 最近下载:2024-11-07 08:32:02
    ... sub": 8388608}, "Proof": {"dom.hemingway.2013.limited.1080p.bluray ... jpg": 105361}, "Sample": {"dom.hemingway.2013.limited.1080p.bluray ... sample.mkv": 79414106}, "Dom.Hemingway.2013.LIMITED.1080p. ... AMIABLE.mkv": 7042823456, "dom.hemingway.2013.limited.1080p.bluray ...
创建时间: 2018-12-05 18:17:07 大小:6.64 GB 文件数量:6 热度:15 最近下载:2025-10-05 07:53:02
    {"Cover": {"disc.jpg": 1789706, "cover.jpg": 5036459}, "VIDEO_TS": {"VIDEO_TS.BUP": 22528, "VIDEO_TS.IFO": 22528, "VIDEO_TS.VOB": 157696, "VTS_01_0.BUP": 22528, "VTS_01_0.IFO": 22528, "VTS_01_0.VOB": 180224, "VTS_01_1.VOB": 10151936, "VTS_02_0.BUP": 32768, ...
创建时间: 2018-12-05 20:37:37 大小:4.59 GB 文件数量:48 热度:8 最近下载:2025-02-22 10:57:02
    ... , "13. - Dom Kennedy - Dominic.mp3": 10325000, "Dom Kennedy - Get Home ... mp3": 9167205, "09. - Dom Kennedy - Black Bentleys.mp3": 8415620 ... .mp3": 1951989, "07. - Dom Kennedy - Honey Buns (Ft. ... Teeflii).mp3": 10730247, "15. - Dom Kennedy - Pleeze (Ft. Nipsey ...
创建时间: 2018-12-05 22:39:33 大小:153.12 MB 文件数量:22 热度:9 最近下载:2024-11-01 21:02:01
    {"INFO!!!!!!!!!!.TXT": 1827, "Best-Torrentox.pl ZAPRASZAMY.url": 114, "Ideal.Home.2018.PL.720p.BluRay.x264-KiT.mkv": 3478678015}
创建时间: 2018-12-06 01:10:49 大小:3.24 GB 文件数量:3 热度:6 最近下载:2023-04-22 05:30:02
    {"Lauris Reiniks. Es Domāšu Par Tevi.jpg": 136264, "Lauris Reiniks. Es Domāšu Par Tevi.txt": 3170, "Lauris Reiniks. Es Domāšu Par Tevi. 2017.PDTVRip.mkv": 1479471112}
创建时间: 2018-12-06 01:53:34 大小:1.38 GB 文件数量:3 热度:15 最近下载:2025-10-02 20:54:04
    {"TOP10FILMESESERIES.txt": 78, "Sob.o.Domínio.dos.Robôs.DVDRip.XviD.DUAL.AUDIO-TOM.avi": 836868096, "Sob.o.Domínio.dos.Robôs.DVDRip.XviD.DUAL.AUDIO-TOM.srt": 66241}
创建时间: 2018-12-06 04:16:17 大小:798.16 MB 文件数量:3 热度:7 最近下载:2025-08-12 20:36:02
    ... avi": 667207680, "Kukolniy.Dom.(1.sezon.02.seriya.iz ... avi": 667170816, "Kukolniy.Dom.(1.sezon.03.seriya.iz ... avi": 666914816, "Kukolniy.Dom.(1.sezon.04.seriya.iz ... avi": 667449344, "Kukolniy.Dom.(1.sezon.05.seriya. ... avi": 666691584, "Kukolniy.Dom.(1.sezon.06.seriya. ...
创建时间: 2018-12-06 08:05:26 大小:8.07 GB 文件数量:13 热度:15 最近下载:2025-08-06 16:18:07
    {"Сариола Маури": {"Сусикоски и Дом трех женщин": {"01_01.mp3": 3612765, "01_02.mp3": 3610570, "01_03.mp3": 3662920, "01_04.mp3": 3641604, "01_05.mp3": 3617153, "01_06.mp3": 3617467, "01_07.mp3": 3623109, "01_08.mp3": 3619975, "01_09.mp3": 3645052, "01_10. ...
创建时间: 2018-12-06 16:37:54 大小:260.45 MB 文件数量:76 热度:9 最近下载:2025-01-26 13:45:05
    {"Dom.2.Lite.avi": 508567552, "Dom.2.Gorod.lubvi.avi": 525197312, "Dom.2.Posle.Zakata.avi": 463259648, "Dom.2.Ostrov.ljubvi.avi": 502755328}
创建时间: 2018-12-06 18:19:44 大小:1.86 GB 文件数量:4 热度:8 最近下载:2025-08-08 16:48:04
    ... costume rosa maiala per Christie Dom.jpg": 283931}
创建时间: 2018-12-06 20:55:18 大小:1.07 GB 文件数量:7 热度:10 最近下载:2024-07-10 16:48:01
    ... .01.2012.KinozalSAT.avi": 576755712, "Dom.obrazcovogo.soderzhaniya.02.2012.KinozalSAT ... .avi": 576753664, "Dom.obrazcovogo.soderzhaniya.03.2012.KinozalSAT ... .avi": 576739328, "Dom.obrazcovogo.soderzhaniya.04.2012.KinozalSAT ...
创建时间: 2018-12-06 22:10:14 大小:13.97 GB 文件数量:26 热度:9 最近下载:2024-12-07 03:10:02
    {"WWW.YIFY-TORRENTS.COM.jpg": 130677, "Dom.Hemingway.2013.1080p.BluRay.x264.YIFY.mp4": 1549868134}
创建时间: 2018-12-07 04:08:05 大小:1.44 GB 文件数量:2 热度:10 最近下载:2025-06-18 07:55:01
    {"GangBang.BDSM.Legendary.Dom.Sandra.Romain.Submissive.Slut.XXX.mp4": 741853182}
创建时间: 2018-12-07 04:32:44 大小:707.49 MB 文件数量:1 热度:28 最近下载:2025-09-09 00:42:02
    {"Bozek-Andryszczak.Dagmara.Andryszczak.Piotr-Dom.Pod.Biegunem.MP3.2017-krzwan1105": {" ... }, "Bozek-Andryszczak.Dagmara.Andryszczak.Piotr-Dom.Pod.Biegunem.MP3.2017-krzwan1105 ...
创建时间: 2018-12-07 05:37:13 大小:733.77 MB 文件数量:10 热度:9 最近下载:2024-06-28 11:22:01
    ... .(720p).MediaClub.mkv": 728562953, "Dom.s.Liliyami.(02.seriya.iz ... .(720p).MediaClub.mkv": 686319517, "Dom.s.Liliyami.(03.seriya.iz ... .(720p).MediaClub.mkv": 570479459, "Dom.s.Liliyami.(04.seriya.iz ... .(720p).MediaClub.mkv": 714443107, "Dom.s.Liliyami.(05.seriya.iz ...
创建时间: 2018-12-07 06:27:05 大小:14.89 GB 文件数量:24 热度:9 最近下载:2025-08-02 12:48:02
    {"INFO!!!!!!!!!!.TXT": 1827, "FILMY ONLINE ZAPRASZAMY.url": 111, "Best-Torrentox.pl ZAPRASZAMY.url": 114, "Our.House.2018.PL.BDRip.x264-KiT.mkv": 466689869}
创建时间: 2018-12-07 17:50:41 大小:445.07 MB 文件数量:4 热度:9 最近下载:2025-08-10 05:42:02
    {"LoGo.png": 207679, "Zapraszamy-KLIK.url": 111, "! Want YOU more -CLIK.url": 111, "Uwaga ważne,ZOBACZ NAS!!.jpg": 2365169, "! Chcesz mieć TO szybciej - zapraszamy-KLIK.url": 111, "Safe.House.S01E01 [1080p.WEB-DL.AC3.2.0.H264-Ralf][Lektor PL][Alusia][ ...
创建时间: 2018-12-07 18:40:22 大小:6.81 GB 文件数量:9 热度:22 最近下载:2025-05-18 15:03:03
    {"VIDEO_TS": {"VIDEO_TS.BUP": 22528, "VIDEO_TS.IFO": 22528, "VIDEO_TS.VOB": 157696, "VTS_01_0.BUP": 20480, "VTS_01_0.IFO": 20480, "VTS_01_0.VOB": 62038016, "VTS_01_1.VOB": 21401600, "VTS_02_0.BUP": 22528, "VTS_02_0.IFO": 22528, "VTS_02_0.VOB": 157696, " ...
创建时间: 2018-12-07 18:56:54 大小:3.71 GB 文件数量:44 热度:11 最近下载:2025-03-02 06:19:02